Página principal
METAR-TAF:

METAR-TAF

Aeroportos :

Rabat, Marrocos

latitude: 34-03N, longitude: 006-46W, altura: 84 m

Observação actual do tempo

O boletim foi feito há 21 minutos, às 14:30 UTC
Vento 6 kt de norte
Temperatura 20°C
Humidade 68%
Pressão 1012 hPa
Visibilidade: 6000 m
Poucas nuvensa uma altura de 1100 ft

METAR: GMME 151430Z 35006KT 6000 FEW011 20/14 Q1012 NOSIG

Hora: 14:51 (14:51 UTC)

Previsão

O boletim foi feito há 3 horas e 51 minutos, às 11:00 UTC
Previsão válida de 15 às 12 UTC a 16 às 18 UTC
Vento 8 kt de norte
Visibilidade: 6000 m
Nuvens dispersasa uma altura de 1000 ft
Nuvens dispersasa uma altura de 20000 ft
Temporariamente
de 16 às 00 UTC a 16 às 10 UTC
Vento 2 kt com direcção variável
Visibilidade: 3000 m
Nuvens fragmentadasa uma altura de 800 ft
Nuvens dispersasa uma altura de 1500 ft
neblina

TAF: GMME 151100Z 1512/1618 36008KT 6000 SCT010 SCT200 TEMPO 1600/1610 VRB02KT 3000 BR BKN008 SCT015

Observações e previsões do tempo de mais de 4000 aeroportos (mensagens METAR e TAF).

As estações disponíveis são os pontos amarelos e vermelhos sobre o mapa.

Mova o rato sobre o mapa para ver o nome da estação.

Depois clique no ponto para visualizar as observações e previsões meteorológicas.

Para alterar o mapa : clique nos botões verdes com uma cruz preta para aumentar o zoom; no botão verde com uma pitada de zoom; ou nas setas verdes para mapas adjacentes.


METAR-TAF: